Cleveland, Ohio
Traffic Map
Current Weather Conditions
Cleveland, Ohio
Overcast Moderate Rain
Overcast
54°
Feels Like: 54°
Wind Chill: 54° Ceiling: 2700
Heat Index: 54° Visibility: 8mi
Dew Point: 51° Wind: 10mph
Humidity: 90% Direction: 190° (S)
Pressure: 29.83in Gusts: 0mph
Raw Report DataKBKL 202308Z 19009KT 8SM RA FEW013 BKN027 OVC035 12/11 A2983 RMK AO2 P0001 T01220106
Traffic Incident Summary
Active as of:
Severity:
Category:
InformationThere was an issue retrieving the traffic information for this location. Please try a different location or try again shortly.
Advertisements
Track Severe Weather on mobile